createdAt,value
2022-12-16T00:01:33.175Z,51.72
2022-12-16T00:04:00.008Z,55.28
2022-12-16T00:06:31.015Z,56.20
2022-12-16T00:08:57.545Z,52.65
2022-12-16T00:11:24.090Z,57.03
2022-12-16T00:13:50.870Z,55.20
2022-12-16T00:16:20.236Z,51.45
2022-12-16T00:18:47.684Z,54.17
2022-12-16T00:21:14.517Z,51.72
2022-12-16T00:23:44.438Z,51.13
2022-12-16T00:26:11.956Z,52.70
2022-12-16T00:28:39.066Z,51.63
2022-12-16T00:31:05.953Z,53.08
2022-12-16T00:33:33.223Z,51.25
2022-12-16T00:36:00.066Z,53.95
2022-12-16T00:38:27.147Z,50.85
2022-12-16T00:40:53.861Z,51.60
2022-12-16T00:43:20.549Z,48.47
2022-12-16T00:45:47.853Z,54.40
2022-12-16T00:48:14.895Z,58.70
2022-12-16T00:50:41.567Z,62.47
2022-12-16T00:53:08.654Z,60.35
2022-12-16T00:55:35.228Z,65.38
2022-12-16T00:58:01.864Z,50.53
2022-12-16T01:00:28.427Z,53.10
2022-12-16T01:02:55.163Z,56.35
2022-12-16T01:05:27.018Z,55.28
2022-12-16T01:07:54.874Z,52.55
2022-12-16T01:10:22.215Z,54.50
2022-12-16T01:12:48.900Z,53.00
2022-12-16T01:15:15.955Z,55.88
2022-12-16T01:17:42.730Z,54.83
2022-12-16T01:20:10.553Z,57.85
2022-12-16T01:22:37.347Z,50.92
2022-12-16T01:25:04.343Z,57.80
2022-12-16T01:27:31.018Z,59.63
2022-12-16T01:29:57.578Z,53.55
2022-12-16T01:32:24.094Z,54.40
2022-12-16T01:34:55.273Z,56.20
2022-12-16T01:37:23.320Z,56.28
2022-12-16T01:39:49.874Z,53.92
2022-12-16T01:42:19.533Z,53.85
2022-12-16T01:44:48.807Z,55.53
2022-12-16T01:47:18.071Z,55.95
2022-12-16T01:49:50.623Z,56.08
2022-12-16T01:52:23.712Z,55.47
2022-12-16T01:55:13.206Z,58.78
2022-12-16T01:57:50.523Z,54.55
2022-12-16T02:00:17.319Z,58.85
2022-12-16T02:02:46.089Z,60.72
2022-12-16T02:05:22.741Z,57.83
2022-12-16T02:07:56.636Z,52.03
2022-12-16T02:10:30.862Z,54.17
2022-12-16T02:13:24.265Z,55.08
2022-12-16T02:15:57.831Z,59.05
2022-12-16T02:18:52.364Z,56.33
2022-12-16T02:21:38.070Z,56.65
2022-12-16T02:24:22.751Z,53.72
2022-12-16T02:26:55.210Z,55.08
2022-12-16T02:30:04.719Z,52.65
2022-12-16T02:32:37.192Z,49.80
2022-12-16T02:35:10.282Z,52.25
2022-12-16T02:37:43.102Z,56.08
2022-12-16T02:40:33.352Z,61.35
2022-12-16T02:43:15.694Z,55.80
2022-12-16T02:45:42.398Z,52.47
2022-12-16T02:48:09.147Z,55.97
2022-12-16T02:50:40.387Z,52.28
2022-12-16T02:53:08.564Z,53.38
2022-12-16T02:56:25.064Z,55.20
2022-12-16T02:59:10.028Z,57.17
2022-12-16T03:01:46.658Z,58.55
2022-12-16T03:04:18.878Z,56.83
2022-12-16T03:06:49.199Z,59.40
2022-12-16T03:09:21.214Z,52.22
2022-12-16T03:11:49.503Z,54.33
2022-12-16T03:14:17.295Z,49.55
2022-12-16T03:16:44.992Z,50.53
2022-12-16T03:19:12.164Z,51.65
2022-12-16T03:21:43.914Z,53.47
2022-12-16T03:24:13.793Z,55.28
2022-12-16T03:26:50.934Z,53.08
2022-12-16T03:29:47.007Z,58.42
2022-12-16T03:32:35.628Z,56.13
2022-12-16T03:35:16.526Z,55.75
2022-12-16T03:37:44.476Z,56.78
2022-12-16T03:40:11.980Z,54.47
2022-12-16T03:42:39.513Z,58.42
2022-12-16T03:45:08.423Z,53.15
2022-12-16T03:47:34.965Z,55.25
2022-12-16T03:50:01.706Z,54.70
2022-12-16T03:52:28.792Z,55.53
2022-12-16T03:54:55.384Z,55.70
2022-12-16T03:57:21.957Z,51.97
2022-12-16T03:59:48.521Z,51.40
2022-12-16T04:02:15.221Z,53.05
2022-12-16T04:04:41.936Z,59.15
2022-12-16T04:07:20.520Z,51.33
2022-12-16T04:09:47.870Z,54.85
2022-12-16T04:12:32.854Z,52.38
2022-12-16T04:15:37.633Z,53.40
2022-12-16T04:18:24.008Z,52.22
2022-12-16T04:21:11.863Z,51.80
2022-12-16T04:24:10.222Z,52.25
2022-12-16T04:26:56.924Z,53.92
2022-12-16T04:29:23.799Z,53.33
2022-12-16T04:31:51.203Z,52.38
2022-12-16T04:34:26.810Z,52.50
2022-12-16T04:37:17.643Z,58.08
2022-12-16T04:40:03.013Z,53.25
2022-12-16T04:42:48.382Z,53.65
2022-12-16T04:45:33.795Z,51.78
2022-12-16T04:48:18.800Z,55.45
2022-12-16T04:51:04.320Z,53.63
2022-12-16T04:53:49.436Z,52.20
2022-12-16T04:56:34.516Z,50.00
2022-12-16T04:59:19.582Z,48.90
2022-12-16T05:02:04.917Z,54.35
2022-12-16T05:04:50.225Z,49.92
2022-12-16T05:07:38.513Z,50.50
2022-12-16T05:10:25.248Z,54.70
2022-12-16T05:13:12.879Z,49.67
2022-12-16T05:15:58.460Z,53.40
2022-12-16T05:18:43.675Z,48.47
2022-12-16T05:21:28.661Z,51.92
2022-12-16T05:24:14.076Z,51.28
2022-12-16T05:26:59.012Z,56.67
2022-12-16T05:29:44.270Z,53.40
2022-12-16T05:32:29.171Z,53.63
2022-12-16T05:35:14.208Z,57.80
2022-12-16T05:37:58.999Z,54.53
2022-12-16T05:40:44.003Z,52.50
2022-12-16T05:43:28.977Z,50.40
2022-12-16T05:46:14.236Z,50.88
2022-12-16T05:49:04.093Z,52.58
2022-12-16T05:51:49.167Z,52.13
2022-12-16T05:54:34.367Z,54.13
2022-12-16T05:57:19.372Z,52.60
2022-12-16T06:00:04.292Z,48.88
2022-12-16T06:02:56.672Z,52.67
2022-12-16T06:05:42.033Z,48.35
2022-12-16T06:08:26.854Z,54.42
2022-12-16T06:11:11.754Z,56.22
2022-12-16T06:13:56.715Z,54.72
2022-12-16T06:16:41.683Z,55.03
2022-12-16T06:19:26.822Z,52.95
2022-12-16T06:22:11.905Z,55.70
2022-12-16T06:24:56.895Z,49.85
2022-12-16T06:27:41.744Z,50.67
2022-12-16T06:30:27.443Z,58.28
2022-12-16T06:33:12.224Z,55.08
2022-12-16T06:35:57.117Z,52.25
2022-12-16T06:38:42.243Z,56.60
2022-12-16T06:41:27.186Z,51.45
2022-12-16T06:44:12.353Z,53.15
2022-12-16T06:46:57.264Z,53.63
2022-12-16T06:49:42.688Z,55.00
2022-12-16T06:52:27.807Z,53.40
2022-12-16T06:55:12.833Z,49.30
2022-12-16T06:57:57.725Z,56.38
2022-12-16T07:00:42.763Z,51.58
2022-12-16T07:03:31.418Z,50.75
2022-12-16T07:06:19.462Z,48.88
2022-12-16T07:09:04.409Z,51.13
2022-12-16T07:11:49.671Z,50.33
2022-12-16T07:14:34.805Z,51.42
2022-12-16T07:17:19.657Z,51.85
2022-12-16T07:20:04.724Z,49.90
2022-12-16T07:23:01.041Z,48.05
2022-12-16T07:25:49.799Z,58.67
2022-12-16T07:28:35.021Z,56.25
2022-12-16T07:31:20.367Z,57.55
2022-12-16T07:34:05.666Z,52.58
2022-12-16T07:36:50.629Z,55.45
2022-12-16T07:39:35.793Z,52.53
2022-12-16T07:42:20.763Z,50.40
2022-12-16T07:45:05.950Z,54.47
2022-12-16T07:47:50.825Z,55.58
2022-12-16T07:50:36.448Z,52.42
2022-12-16T07:53:22.309Z,51.47
2022-12-16T07:56:07.540Z,59.28
2022-12-16T07:58:52.298Z,56.95
2022-12-16T08:01:40.273Z,55.35
2022-12-16T08:04:25.600Z,57.17
2022-12-16T08:07:10.724Z,51.22
2022-12-16T08:09:56.121Z,55.90
2022-12-16T08:12:41.317Z,57.47
2022-12-16T08:15:26.784Z,51.47
2022-12-16T08:18:12.135Z,55.67
2022-12-16T08:20:57.088Z,52.00
2022-12-16T08:23:42.311Z,53.40
2022-12-16T08:26:27.443Z,54.92
2022-12-16T08:29:35.208Z,60.15
2022-12-16T08:32:18.187Z,59.75
2022-12-16T08:35:03.209Z,60.38
2022-12-16T08:37:48.427Z,58.42
2022-12-16T08:40:35.741Z,61.97
2022-12-16T08:43:21.599Z,63.47
2022-12-16T08:46:07.147Z,60.38
2022-12-16T08:48:52.309Z,62.17
2022-12-16T08:51:37.339Z,61.58
2022-12-16T08:54:22.225Z,67.95
2022-12-16T08:57:07.227Z,59.97
2022-12-16T08:59:52.078Z,54.78
2022-12-16T09:02:37.449Z,58.70
2022-12-16T09:05:23.579Z,60.10
2022-12-16T09:08:08.607Z,59.15
2022-12-16T09:10:53.501Z,59.42
2022-12-16T09:13:40.366Z,54.25
2022-12-16T09:16:25.663Z,52.72
2022-12-16T09:19:11.972Z,52.25
2022-12-16T09:21:56.982Z,58.75
2022-12-16T09:24:42.207Z,54.92
2022-12-16T09:27:27.540Z,54.03
2022-12-16T09:30:12.406Z,54.45
2022-12-16T09:33:01.963Z,57.97
2022-12-16T09:35:47.206Z,53.70
2022-12-16T09:38:32.608Z,55.58
2022-12-16T09:41:44.620Z,58.30
2022-12-16T09:44:34.168Z,54.25
2022-12-16T09:47:32.628Z,56.60
2022-12-16T09:50:18.306Z,56.72
2022-12-16T09:53:06.101Z,51.45
2022-12-16T09:55:55.370Z,53.72
2022-12-16T09:58:42.039Z,51.42
2022-12-16T10:01:30.132Z,49.15
2022-12-16T10:04:15.550Z,49.53
2022-12-16T10:07:04.346Z,51.95
2022-12-16T10:09:51.500Z,51.30
2022-12-16T10:12:51.787Z,51.00
2022-12-16T10:15:54.904Z,51.10
2022-12-16T10:18:49.693Z,57.00
2022-12-16T10:21:40.141Z,55.58
2022-12-16T10:24:43.971Z,55.08
2022-12-16T10:27:36.065Z,57.13
2022-12-16T10:30:22.659Z,58.35
2022-12-16T10:33:09.184Z,54.80
2022-12-16T10:35:56.604Z,57.33
2022-12-16T10:38:50.411Z,61.97
2022-12-16T10:41:36.730Z,59.38
2022-12-16T10:44:25.286Z,57.38
2022-12-16T10:47:10.625Z,56.92
2022-12-16T10:49:55.959Z,61.80
2022-12-16T10:52:41.720Z,58.00
2022-12-16T10:55:53.033Z,56.55
2022-12-16T10:58:56.214Z,58.78
2022-12-16T11:01:44.051Z,58.95
2022-12-16T11:04:55.648Z,56.60
2022-12-16T11:08:02.845Z,58.50
2022-12-16T11:10:58.051Z,56.05
2022-12-16T11:13:51.448Z,59.60
2022-12-16T11:16:41.430Z,56.13
2022-12-16T11:19:44.123Z,59.80
2022-12-16T11:22:38.124Z,52.83
2022-12-16T11:25:33.386Z,63.80
2022-12-16T11:28:31.815Z,61.00
2022-12-16T11:31:31.791Z,60.92
2022-12-16T11:34:18.629Z,58.28
2022-12-16T11:37:04.257Z,57.80
2022-12-16T11:39:50.399Z,56.92
2022-12-16T11:42:42.973Z,60.97
2022-12-16T11:45:37.183Z,55.45
2022-12-16T11:48:31.357Z,54.92
2022-12-16T11:51:17.031Z,61.03
2022-12-16T11:54:08.885Z,54.83
2022-12-16T11:56:56.774Z,58.03
2022-12-16T11:59:55.342Z,49.25
2022-12-16T12:02:50.005Z,53.83
2022-12-16T12:05:37.279Z,59.67
2022-12-16T12:08:31.603Z,55.55
2022-12-16T12:11:23.472Z,58.95
2022-12-16T12:14:39.302Z,56.60
2022-12-16T12:17:35.978Z,55.03
2022-12-16T12:20:42.608Z,56.08
2022-12-16T12:23:29.908Z,60.78
2022-12-16T12:26:26.346Z,54.10
2022-12-16T12:29:31.842Z,54.22
2022-12-16T12:32:45.962Z,52.47
2022-12-16T12:35:50.312Z,54.13
2022-12-16T12:38:49.210Z,59.38
2022-12-16T12:41:46.231Z,51.42
2022-12-16T12:45:01.179Z,56.92
2022-12-16T12:47:48.406Z,56.17
2022-12-16T12:50:42.753Z,54.72
2022-12-16T12:53:49.603Z,55.08
2022-12-16T12:56:46.830Z,57.40
2022-12-16T12:59:50.932Z,60.33
2022-12-16T13:02:41.469Z,59.28
2022-12-16T13:05:33.246Z,56.58
2022-12-16T13:08:56.724Z,59.60
2022-12-16T13:11:42.877Z,58.28
2022-12-16T13:14:49.959Z,55.15
2022-12-16T13:17:42.006Z,55.63
2022-12-16T13:20:52.138Z,54.83
2022-12-16T13:23:46.659Z,54.60
2022-12-16T13:26:34.094Z,55.50
2022-12-16T13:29:32.070Z,59.17
2022-12-16T13:32:30.603Z,61.58
2022-12-16T13:35:23.873Z,58.92
2022-12-16T13:38:14.085Z,58.00
2022-12-16T13:41:16.566Z,58.97
2022-12-16T13:44:15.622Z,55.70
2022-12-16T13:47:12.069Z,55.08
2022-12-16T13:50:04.793Z,57.50
2022-12-16T13:52:59.015Z,54.40
2022-12-16T13:55:56.048Z,53.70
2022-12-16T13:59:12.183Z,52.17
2022-12-16T14:02:06.529Z,51.78
2022-12-16T14:04:54.417Z,53.85
2022-12-16T14:07:44.127Z,52.13
2022-12-16T14:10:54.567Z,51.58
2022-12-16T14:13:49.953Z,52.28
2022-12-16T14:16:45.240Z,49.53
2022-12-16T14:19:51.644Z,50.17
2022-12-16T14:22:55.310Z,53.08
2022-12-16T14:25:41.833Z,54.65
2022-12-16T14:28:40.677Z,59.95
2022-12-16T14:31:34.318Z,53.67
2022-12-16T14:34:21.584Z,51.45
2022-12-16T14:37:06.820Z,54.97
2022-12-16T14:39:57.356Z,55.15
2022-12-16T14:42:47.644Z,58.40
2022-12-16T14:45:50.701Z,53.30
2022-12-16T14:48:49.454Z,53.17
2022-12-16T14:51:53.093Z,56.28
2022-12-16T14:54:46.439Z,51.50
2022-12-16T14:57:35.050Z,59.85
2022-12-16T15:00:25.659Z,55.90
2022-12-16T15:03:14.116Z,54.20
2022-12-16T15:06:01.107Z,66.95
2022-12-16T15:08:48.262Z,49.92
2022-12-16T15:11:56.741Z,51.33
2022-12-16T15:14:45.935Z,52.75
2022-12-16T15:17:41.071Z,52.13
2022-12-16T15:20:36.396Z,56.78
2022-12-16T15:23:38.234Z,52.33
2022-12-16T15:26:24.722Z,55.55
2022-12-16T15:29:10.019Z,53.22
2022-12-16T15:32:02.969Z,53.13
2022-12-16T15:35:05.697Z,55.85
2022-12-16T15:38:00.757Z,58.67
2022-12-16T15:40:50.686Z,53.30
2022-12-16T15:43:40.997Z,56.15
2022-12-16T15:46:35.624Z,58.25
2022-12-16T15:49:21.382Z,57.95
2022-12-16T15:52:08.147Z,58.22
2022-12-16T15:55:08.641Z,57.35
2022-12-16T15:57:55.319Z,57.63
2022-12-16T16:00:42.191Z,57.35
2022-12-16T16:03:40.095Z,60.78
2022-12-16T16:06:44.878Z,63.63
2022-12-16T16:09:34.670Z,63.80
2022-12-16T16:12:19.740Z,61.75
2022-12-16T16:15:04.531Z,58.63
2022-12-16T16:17:49.621Z,61.05
2022-12-16T16:20:36.328Z,57.60
2022-12-16T16:23:21.648Z,57.05
2022-12-16T16:26:07.571Z,64.50
2022-12-16T16:28:53.364Z,59.88
2022-12-16T16:31:38.789Z,64.63
2022-12-16T16:34:23.973Z,61.15
2022-12-16T16:37:12.522Z,60.25
2022-12-16T16:39:57.703Z,67.95
2022-12-16T16:42:43.066Z,63.05
2022-12-16T16:45:28.698Z,64.90
2022-12-16T16:48:23.391Z,57.97
2022-12-16T16:51:08.453Z,61.95
2022-12-16T16:53:53.774Z,61.75
2022-12-16T16:56:38.950Z,59.33
2022-12-16T16:59:31.832Z,60.13
2022-12-16T17:02:17.241Z,60.33
2022-12-16T17:05:02.507Z,65.35
2022-12-16T17:07:52.184Z,59.50
2022-12-16T17:10:38.834Z,61.03
2022-12-16T17:13:23.786Z,59.85
2022-12-16T17:16:08.706Z,62.25
2022-12-16T17:18:54.023Z,64.22
2022-12-16T17:21:38.946Z,64.65
2022-12-16T17:24:24.485Z,60.50
2022-12-16T17:27:09.589Z,63.55
2022-12-16T17:29:54.781Z,61.67
2022-12-16T17:32:39.953Z,64.20
2022-12-16T17:35:25.383Z,64.95
2022-12-16T17:38:10.403Z,64.78
2022-12-16T17:40:58.230Z,66.38
2022-12-16T17:43:43.073Z,64.10
2022-12-16T17:46:30.230Z,64.10
2022-12-16T17:49:17.032Z,65.00
2022-12-16T17:52:02.759Z,66.35
2022-12-16T17:54:48.082Z,62.20
2022-12-16T17:57:33.284Z,68.00
2022-12-16T18:00:18.245Z,63.45
2022-12-16T18:03:03.600Z,65.70
2022-12-16T18:05:48.735Z,61.78
2022-12-16T18:08:34.054Z,65.90
2022-12-16T18:11:19.103Z,64.93
2022-12-16T18:14:04.218Z,66.00
2022-12-16T18:16:49.609Z,66.82
2022-12-16T18:19:35.345Z,71.22
2022-12-16T18:22:20.726Z,63.88
2022-12-16T18:25:05.671Z,74.43
2022-12-16T18:27:51.175Z,68.00
2022-12-16T18:30:36.186Z,70.53
2022-12-16T18:33:21.134Z,69.32
2022-12-16T18:36:26.010Z,68.38
2022-12-16T18:39:11.231Z,69.63
2022-12-16T18:42:03.610Z,70.97
2022-12-16T18:44:48.881Z,66.47
2022-12-16T18:47:34.448Z,64.40
2022-12-16T18:50:25.469Z,70.82
2022-12-16T18:53:13.007Z,68.05
2022-12-16T18:55:58.275Z,69.80
2022-12-16T18:58:59.609Z,69.22
2022-12-16T19:01:44.860Z,74.20
2022-12-16T19:04:30.178Z,63.55
2022-12-16T19:07:14.944Z,67.72
2022-12-16T19:10:00.239Z,70.22
2022-12-16T19:12:45.386Z,70.93
2022-12-16T19:15:30.464Z,69.93
2022-12-16T19:18:15.580Z,69.68
2022-12-16T19:21:00.694Z,71.03
2022-12-16T19:23:45.975Z,70.57
2022-12-16T19:26:31.259Z,70.55
2022-12-16T19:29:16.614Z,67.38
2022-12-16T19:32:01.863Z,69.07
2022-12-16T19:34:47.276Z,66.88
2022-12-16T19:37:32.248Z,68.93
2022-12-16T19:40:17.262Z,69.07
2022-12-16T19:43:15.782Z,65.15
2022-12-16T19:46:00.856Z,70.38
2022-12-16T19:48:46.128Z,75.45
2022-12-16T19:51:31.317Z,69.75
2022-12-16T19:54:16.500Z,73.13
2022-12-16T19:57:01.719Z,72.30
2022-12-16T19:59:46.974Z,70.82
2022-12-16T20:02:32.282Z,72.75
2022-12-16T20:05:25.118Z,71.15
2022-12-16T20:08:10.081Z,70.22
2022-12-16T20:10:56.353Z,74.55
2022-12-16T20:13:42.148Z,77.28
2022-12-16T20:16:29.869Z,69.68
2022-12-16T20:19:15.426Z,77.05
2022-12-16T20:25:06.181Z,71.80
2022-12-16T20:27:51.449Z,75.10
2022-12-16T20:30:36.905Z,75.18
2022-12-16T20:33:22.339Z,72.72
2022-12-16T20:36:21.679Z,79.07
2022-12-16T20:39:09.429Z,81.90
2022-12-16T20:41:56.111Z,80.30
2022-12-16T20:44:41.343Z,83.30
2022-12-16T20:47:26.291Z,84.85
2022-12-16T20:50:11.131Z,87.38
2022-12-16T20:52:56.583Z,86.95
2022-12-16T20:55:41.542Z,84.88
2022-12-16T20:58:26.642Z,85.18
2022-12-16T21:01:12.838Z,92.88
2022-12-16T21:03:58.050Z,93.22
2022-12-16T21:06:43.243Z,90.45
2022-12-16T21:09:28.517Z,83.22
2022-12-16T21:12:13.859Z,86.68
2022-12-16T21:14:59.262Z,88.40
2022-12-16T21:17:44.221Z,85.68
2022-12-16T21:20:29.602Z,86.85
2022-12-16T21:23:23.149Z,84.07
2022-12-16T21:26:08.364Z,83.53
2022-12-16T21:28:56.124Z,94.00
2022-12-16T21:31:41.481Z,88.32
2022-12-16T21:34:26.393Z,87.95
2022-12-16T21:37:14.368Z,85.13
2022-12-16T21:39:59.296Z,86.68
2022-12-16T21:42:44.411Z,84.45
2022-12-16T21:45:29.664Z,91.18
2022-12-16T21:48:14.579Z,94.05
2022-12-16T21:50:59.797Z,95.28
2022-12-16T21:53:45.119Z,94.45
2022-12-16T21:56:30.512Z,88.30
2022-12-16T21:59:15.877Z,97.88
2022-12-16T22:02:00.952Z,92.22
2022-12-16T22:04:46.216Z,93.55
2022-12-16T22:07:31.240Z,92.75
2022-12-16T22:10:16.123Z,92.90
2022-12-16T22:13:01.275Z,97.97
2022-12-16T22:15:46.125Z,100.03
2022-12-16T22:18:31.246Z,95.13
2022-12-16T22:21:18.637Z,89.35
2022-12-16T22:24:03.900Z,94.38
2022-12-16T22:26:49.304Z,90.10
2022-12-16T22:29:34.562Z,102.15
2022-12-16T22:32:19.522Z,94.32
2022-12-16T22:35:04.471Z,96.40
2022-12-16T22:37:49.966Z,94.90
2022-12-16T22:40:34.924Z,83.80
2022-12-16T22:43:37.023Z,81.82
2022-12-16T22:46:22.986Z,84.78
2022-12-16T22:49:07.968Z,81.70
2022-12-16T22:51:53.806Z,87.80
2022-12-16T22:54:39.017Z,78.00
2022-12-16T22:57:26.670Z,82.80
2022-12-16T23:00:11.906Z,84.65
2022-12-16T23:02:56.938Z,86.40
2022-12-16T23:05:42.236Z,82.13
2022-12-16T23:08:27.031Z,82.95
2022-12-16T23:11:13.880Z,79.57
2022-12-16T23:13:59.079Z,78.88
2022-12-16T23:16:44.055Z,84.95
2022-12-16T23:19:29.159Z,91.10
2022-12-16T23:22:14.146Z,89.97
2022-12-16T23:24:59.148Z,89.18
2022-12-16T23:27:44.219Z,90.97
2022-12-16T23:30:29.908Z,87.75
2022-12-16T23:33:17.367Z,85.95
2022-12-16T23:36:02.208Z,96.90
2022-12-16T23:38:47.616Z,88.85
2022-12-16T23:41:32.649Z,98.97
2022-12-16T23:44:17.642Z,91.30
2022-12-16T23:47:02.671Z,92.10
2022-12-16T23:49:47.802Z,89.30
2022-12-16T23:52:32.720Z,92.93
2022-12-16T23:55:17.741Z,86.35
2022-12-16T23:58:03.014Z,91.55
